sensor_id;sensor_type;location;lat;lon;timestamp;temperature;humidity
28905;DHT22;60848;53.884;11.446;2022-11-15T00:02:37;11.20;66.60
28905;DHT22;60848;53.884;11.446;2022-11-15T00:05:25;11.40;66.40
28905;DHT22;60848;53.884;11.446;2022-11-15T00:08:12;11.50;65.20
28905;DHT22;60848;53.884;11.446;2022-11-15T00:11:00;11.50;64.70
28905;DHT22;60848;53.884;11.446;2022-11-15T00:13:49;11.50;65.10
28905;DHT22;60848;53.884;11.446;2022-11-15T00:16:36;11.40;65.10
28905;DHT22;60848;53.884;11.446;2022-11-15T00:19:23;11.40;65.10
28905;DHT22;60848;53.884;11.446;2022-11-15T00:22:10;11.40;65.00
28905;DHT22;60848;53.884;11.446;2022-11-15T00:24:57;11.40;65.10
28905;DHT22;60848;53.884;11.446;2022-11-15T00:27:43;11.40;65.10
28905;DHT22;60848;53.884;11.446;2022-11-15T00:30:32;11.30;65.00
28905;DHT22;60848;53.884;11.446;2022-11-15T00:33:20;11.30;65.00
28905;DHT22;60848;53.884;11.446;2022-11-15T00:36:09;11.20;65.10
28905;DHT22;60848;53.884;11.446;2022-11-15T00:38:56;11.30;65.00
28905;DHT22;60848;53.884;11.446;2022-11-15T00:41:42;11.20;65.10
28905;DHT22;60848;53.884;11.446;2022-11-15T00:44:29;11.30;65.00
28905;DHT22;60848;53.884;11.446;2022-11-15T00:47:18;11.30;65.20
28905;DHT22;60848;53.884;11.446;2022-11-15T00:50:05;11.30;65.20
28905;DHT22;60848;53.884;11.446;2022-11-15T00:52:57;11.20;65.20
28905;DHT22;60848;53.884;11.446;2022-11-15T00:55:44;11.30;65.30
28905;DHT22;60848;53.884;11.446;2022-11-15T00:58:31;11.30;65.20
28905;DHT22;60848;53.884;11.446;2022-11-15T01:01:18;11.30;65.00
28905;DHT22;60848;53.884;11.446;2022-11-15T01:04:06;11.30;65.00
28905;DHT22;60848;53.884;11.446;2022-11-15T01:06:53;11.30;65.20
28905;DHT22;60848;53.884;11.446;2022-11-15T01:09:40;11.30;65.00
28905;DHT22;60848;53.884;11.446;2022-11-15T01:12:29;11.30;65.10
28905;DHT22;60848;53.884;11.446;2022-11-15T01:15:17;11.20;65.20
28905;DHT22;60848;53.884;11.446;2022-11-15T01:18:04;11.20;65.30
28905;DHT22;60848;53.884;11.446;2022-11-15T01:20:52;11.20;65.50
28905;DHT22;60848;53.884;11.446;2022-11-15T01:23:39;11.20;65.20
28905;DHT22;60848;53.884;11.446;2022-11-15T01:26:26;11.20;65.30
28905;DHT22;60848;53.884;11.446;2022-11-15T01:29:14;11.10;65.30
28905;DHT22;60848;53.884;11.446;2022-11-15T01:32:00;11.10;65.50
28905;DHT22;60848;53.884;11.446;2022-11-15T01:34:47;11.10;65.60
28905;DHT22;60848;53.884;11.446;2022-11-15T01:37:36;11.10;65.50
28905;DHT22;60848;53.884;11.446;2022-11-15T01:40:23;11.10;65.40
28905;DHT22;60848;53.884;11.446;2022-11-15T01:43:20;11.10;65.30
28905;DHT22;60848;53.884;11.446;2022-11-15T01:46:21;11.10;65.30
28905;DHT22;60848;53.884;11.446;2022-11-15T01:49:13;11.10;65.40
28905;DHT22;60848;53.884;11.446;2022-11-15T01:52:01;11.00;65.40
28905;DHT22;60848;53.884;11.446;2022-11-15T01:54:54;11.00;65.50
28905;DHT22;60848;53.884;11.446;2022-11-15T01:57:45;11.00;65.40
28905;DHT22;60848;53.884;11.446;2022-11-15T02:00:32;11.00;65.40
28905;DHT22;60848;53.884;11.446;2022-11-15T02:03:20;11.00;65.70
28905;DHT22;60848;53.884;11.446;2022-11-15T02:06:09;11.00;65.60
28905;DHT22;60848;53.884;11.446;2022-11-15T02:08:57;11.00;65.70
28905;DHT22;60848;53.884;11.446;2022-11-15T02:11:46;11.00;65.40
28905;DHT22;60848;53.884;11.446;2022-11-15T02:14:34;10.90;65.60
28905;DHT22;60848;53.884;11.446;2022-11-15T02:17:40;10.90;65.60
28905;DHT22;60848;53.884;11.446;2022-11-15T02:24:16;10.90;65.50
28905;DHT22;60848;53.884;11.446;2022-11-15T02:27:49;10.90;65.20
28905;DHT22;60848;53.884;11.446;2022-11-15T02:30:45;10.90;65.30
28905;DHT22;60848;53.884;11.446;2022-11-15T02:33:38;10.80;65.50
28905;DHT22;60848;53.884;11.446;2022-11-15T02:36:36;10.80;65.40
28905;DHT22;60848;53.884;11.446;2022-11-15T02:39:31;10.80;65.30
28905;DHT22;60848;53.884;11.446;2022-11-15T02:42:23;10.80;65.40
28905;DHT22;60848;53.884;11.446;2022-11-15T02:45:31;10.80;65.60
28905;DHT22;60848;53.884;11.446;2022-11-15T02:48:21;10.70;65.60
28905;DHT22;60848;53.884;11.446;2022-11-15T02:51:09;10.70;65.90
28905;DHT22;60848;53.884;11.446;2022-11-15T02:53:56;10.70;65.70
28905;DHT22;60848;53.884;11.446;2022-11-15T02:56:45;10.80;65.60
28905;DHT22;60848;53.884;11.446;2022-11-15T03:00:01;10.80;65.70
28905;DHT22;60848;53.884;11.446;2022-11-15T03:03:08;10.70;65.70
28905;DHT22;60848;53.884;11.446;2022-11-15T03:06:11;10.70;65.50
28905;DHT22;60848;53.884;11.446;2022-11-15T03:09:05;10.70;65.40
28905;DHT22;60848;53.884;11.446;2022-11-15T03:12:04;10.70;65.60
28905;DHT22;60848;53.884;11.446;2022-11-15T03:14:56;10.70;65.40
28905;DHT22;60848;53.884;11.446;2022-11-15T03:17:49;10.70;65.40
28905;DHT22;60848;53.884;11.446;2022-11-15T03:20:37;10.50;65.60
28905;DHT22;60848;53.884;11.446;2022-11-15T03:23:28;10.50;65.90
28905;DHT22;60848;53.884;11.446;2022-11-15T03:26:19;10.60;66.10
28905;DHT22;60848;53.884;11.446;2022-11-15T03:29:11;10.50;66.00
28905;DHT22;60848;53.884;11.446;2022-11-15T03:32:03;10.50;66.10
28905;DHT22;60848;53.884;11.446;2022-11-15T03:34:55;10.50;66.00
28905;DHT22;60848;53.884;11.446;2022-11-15T03:37:48;10.50;66.00
28905;DHT22;60848;53.884;11.446;2022-11-15T03:40:39;10.40;66.00
28905;DHT22;60848;53.884;11.446;2022-11-15T03:43:33;10.20;66.90
28905;DHT22;60848;53.884;11.446;2022-11-15T03:46:26;10.40;66.80
28905;DHT22;60848;53.884;11.446;2022-11-15T03:49:17;10.50;66.10
28905;DHT22;60848;53.884;11.446;2022-11-15T03:52:06;10.50;65.80
28905;DHT22;60848;53.884;11.446;2022-11-15T03:54:54;10.40;65.60
28905;DHT22;60848;53.884;11.446;2022-11-15T03:57:43;10.30;65.70
28905;DHT22;60848;53.884;11.446;2022-11-15T04:00:30;10.30;65.70
28905;DHT22;60848;53.884;11.446;2022-11-15T04:03:17;10.20;65.70
28905;DHT22;60848;53.884;11.446;2022-11-15T04:06:05;10.20;65.70
28905;DHT22;60848;53.884;11.446;2022-11-15T04:08:52;10.20;66.00
28905;DHT22;60848;53.884;11.446;2022-11-15T04:11:39;10.10;65.90
28905;DHT22;60848;53.884;11.446;2022-11-15T04:14:27;10.20;65.90
28905;DHT22;60848;53.884;11.446;2022-11-15T04:17:14;10.20;65.70
28905;DHT22;60848;53.884;11.446;2022-11-15T04:20:00;10.20;65.80
28905;DHT22;60848;53.884;11.446;2022-11-15T04:23:06;10.10;65.70
28905;DHT22;60848;53.884;11.446;2022-11-15T04:26:12;10.10;66.00
28905;DHT22;60848;53.884;11.446;2022-11-15T04:29:01;10.00;66.00
28905;DHT22;60848;53.884;11.446;2022-11-15T04:32:07;10.10;65.80
28905;DHT22;60848;53.884;11.446;2022-11-15T04:34:54;10.00;65.80
28905;DHT22;60848;53.884;11.446;2022-11-15T04:37:40;10.00;65.90
28905;DHT22;60848;53.884;11.446;2022-11-15T04:40:33;10.10;65.90
28905;DHT22;60848;53.884;11.446;2022-11-15T04:43:20;10.10;65.90
28905;DHT22;60848;53.884;11.446;2022-11-15T04:46:07;10.00;65.70
28905;DHT22;60848;53.884;11.446;2022-11-15T04:48:55;10.00;65.90
28905;DHT22;60848;53.884;11.446;2022-11-15T04:51:44;10.00;65.90
28905;DHT22;60848;53.884;11.446;2022-11-15T04:54:31;10.00;66.00
28905;DHT22;60848;53.884;11.446;2022-11-15T04:57:18;10.00;65.90
28905;DHT22;60848;53.884;11.446;2022-11-15T05:00:07;10.10;66.10
28905;DHT22;60848;53.884;11.446;2022-11-15T05:02:54;10.10;66.00
28905;DHT22;60848;53.884;11.446;2022-11-15T05:06:09;10.10;66.00
28905;DHT22;60848;53.884;11.446;2022-11-15T05:08:55;10.20;66.10
28905;DHT22;60848;53.884;11.446;2022-11-15T05:11:42;10.30;66.00
28905;DHT22;60848;53.884;11.446;2022-11-15T05:14:29;10.30;65.90
28905;DHT22;60848;53.884;11.446;2022-11-15T05:17:16;10.30;65.90
28905;DHT22;60848;53.884;11.446;2022-11-15T05:20:03;10.30;65.90
28905;DHT22;60848;53.884;11.446;2022-11-15T05:22:52;10.30;65.80
28905;DHT22;60848;53.884;11.446;2022-11-15T05:25:39;10.30;66.10
28905;DHT22;60848;53.884;11.446;2022-11-15T05:28:27;10.30;66.00
28905;DHT22;60848;53.884;11.446;2022-11-15T05:31:15;10.30;65.90
28905;DHT22;60848;53.884;11.446;2022-11-15T05:34:04;10.40;65.90
28905;DHT22;60848;53.884;11.446;2022-11-15T05:36:52;10.50;65.70
28905;DHT22;60848;53.884;11.446;2022-11-15T05:39:40;10.50;65.60
28905;DHT22;60848;53.884;11.446;2022-11-15T05:42:27;10.40;65.60
28905;DHT22;60848;53.884;11.446;2022-11-15T05:45:16;10.50;65.80
28905;DHT22;60848;53.884;11.446;2022-11-15T05:48:11;10.40;65.80
28905;DHT22;60848;53.884;11.446;2022-11-15T05:50:59;10.50;65.80
28905;DHT22;60848;53.884;11.446;2022-11-15T05:53:46;10.40;65.60
28905;DHT22;60848;53.884;11.446;2022-11-15T05:56:35;10.40;65.60
28905;DHT22;60848;53.884;11.446;2022-11-15T05:59:22;10.30;65.70
28905;DHT22;60848;53.884;11.446;2022-11-15T06:02:09;10.30;65.80
28905;DHT22;60848;53.884;11.446;2022-11-15T06:04:56;10.30;65.80
28905;DHT22;60848;53.884;11.446;2022-11-15T06:07:42;10.30;66.10
28905;DHT22;60848;53.884;11.446;2022-11-15T06:10:30;10.20;66.30
28905;DHT22;60848;53.884;11.446;2022-11-15T06:13:18;10.30;66.30
28905;DHT22;60848;53.884;11.446;2022-11-15T06:16:05;10.20;66.40
28905;DHT22;60848;53.884;11.446;2022-11-15T06:18:53;10.30;66.40
28905;DHT22;60848;53.884;11.446;2022-11-15T06:21:39;10.30;66.50
28905;DHT22;60848;53.884;11.446;2022-11-15T06:24:26;10.30;66.20
28905;DHT22;60848;53.884;11.446;2022-11-15T06:27:13;10.30;66.20
28905;DHT22;60848;53.884;11.446;2022-11-15T06:30:02;10.30;66.30
28905;DHT22;60848;53.884;11.446;2022-11-15T06:32:49;10.30;66.30
28905;DHT22;60848;53.884;11.446;2022-11-15T06:35:36;10.30;66.50
28905;DHT22;60848;53.884;11.446;2022-11-15T06:38:23;10.40;66.40
28905;DHT22;60848;53.884;11.446;2022-11-15T06:41:12;10.50;66.40
28905;DHT22;60848;53.884;11.446;2022-11-15T06:43:59;10.60;66.40
28905;DHT22;60848;53.884;11.446;2022-11-15T06:46:47;10.60;66.20
28905;DHT22;60848;53.884;11.446;2022-11-15T06:49:35;10.60;66.20
28905;DHT22;60848;53.884;11.446;2022-11-15T06:52:22;10.70;66.20
28905;DHT22;60848;53.884;11.446;2022-11-15T06:55:09;10.80;66.10
28905;DHT22;60848;53.884;11.446;2022-11-15T06:57:55;10.80;66.20
28905;DHT22;60848;53.884;11.446;2022-11-15T07:00:43;10.80;66.10
28905;DHT22;60848;53.884;11.446;2022-11-15T07:03:33;10.90;66.10
28905;DHT22;60848;53.884;11.446;2022-11-15T07:06:20;11.00;65.90
28905;DHT22;60848;53.884;11.446;2022-11-15T07:09:07;11.00;65.90
28905;DHT22;60848;53.884;11.446;2022-11-15T07:11:54;11.00;66.20
28905;DHT22;60848;53.884;11.446;2022-11-15T07:14:40;11.10;66.10
28905;DHT22;60848;53.884;11.446;2022-11-15T07:17:27;11.10;66.00
28905;DHT22;60848;53.884;11.446;2022-11-15T07:20:15;11.10;66.00
28905;DHT22;60848;53.884;11.446;2022-11-15T07:23:04;11.10;66.10
28905;DHT22;60848;53.884;11.446;2022-11-15T07:25:51;11.20;66.30
28905;DHT22;60848;53.884;11.446;2022-11-15T07:28:38;11.20;66.20
28905;DHT22;60848;53.884;11.446;2022-11-15T07:31:25;11.30;66.10
28905;DHT22;60848;53.884;11.446;2022-11-15T07:34:12;11.30;66.10
28905;DHT22;60848;53.884;11.446;2022-11-15T07:37:00;11.30;66.10
28905;DHT22;60848;53.884;11.446;2022-11-15T07:39:47;11.30;66.20
28905;DHT22;60848;53.884;11.446;2022-11-15T07:42:34;11.40;66.40
28905;DHT22;60848;53.884;11.446;2022-11-15T07:45:44;11.40;66.40
28905;DHT22;60848;53.884;11.446;2022-11-15T07:48:31;11.40;66.50
28905;DHT22;60848;53.884;11.446;2022-11-15T07:51:29;11.50;66.60
28905;DHT22;60848;53.884;11.446;2022-11-15T07:54:17;11.60;66.60
28905;DHT22;60848;53.884;11.446;2022-11-15T07:57:04;11.60;66.40
28905;DHT22;60848;53.884;11.446;2022-11-15T07:59:52;11.60;66.40
28905;DHT22;60848;53.884;11.446;2022-11-15T08:02:39;11.60;66.70
28905;DHT22;60848;53.884;11.446;2022-11-15T08:05:26;11.70;66.60
28905;DHT22;60848;53.884;11.446;2022-11-15T08:08:13;11.70;66.90
28905;DHT22;60848;53.884;11.446;2022-11-15T08:11:02;11.80;66.80
28905;DHT22;60848;53.884;11.446;2022-11-15T08:13:49;11.70;66.80
28905;DHT22;60848;53.884;11.446;2022-11-15T08:16:36;11.80;66.70
28905;DHT22;60848;53.884;11.446;2022-11-15T08:19:23;11.80;66.80
28905;DHT22;60848;53.884;11.446;2022-11-15T08:22:10;11.90;67.40
28905;DHT22;60848;53.884;11.446;2022-11-15T08:24:57;12.00;67.30
28905;DHT22;60848;53.884;11.446;2022-11-15T08:27:46;12.10;66.80
28905;DHT22;60848;53.884;11.446;2022-11-15T08:30:35;12.10;66.70
28905;DHT22;60848;53.884;11.446;2022-11-15T08:33:23;12.10;66.60
28905;DHT22;60848;53.884;11.446;2022-11-15T08:36:13;12.20;66.60
28905;DHT22;60848;53.884;11.446;2022-11-15T08:39:00;12.20;66.50
28905;DHT22;60848;53.884;11.446;2022-11-15T08:41:47;12.20;66.50
28905;DHT22;60848;53.884;11.446;2022-11-15T08:44:36;12.20;66.40
28905;DHT22;60848;53.884;11.446;2022-11-15T08:47:23;12.30;66.40
28905;DHT22;60848;53.884;11.446;2022-11-15T08:50:10;12.30;66.40
28905;DHT22;60848;53.884;11.446;2022-11-15T08:52:57;12.30;66.30
28905;DHT22;60848;53.884;11.446;2022-11-15T08:55:44;12.30;66.40
28905;DHT22;60848;53.884;11.446;2022-11-15T08:58:31;12.30;66.30
28905;DHT22;60848;53.884;11.446;2022-11-15T09:01:21;12.50;66.30
28905;DHT22;60848;53.884;11.446;2022-11-15T09:04:08;12.50;66.10
28905;DHT22;60848;53.884;11.446;2022-11-15T09:06:55;12.50;66.20
28905;DHT22;60848;53.884;11.446;2022-11-15T09:09:42;12.60;66.10
28905;DHT22;60848;53.884;11.446;2022-11-15T09:12:29;12.60;66.00
28905;DHT22;60848;53.884;11.446;2022-11-15T09:15:16;12.70;66.00
28905;DHT22;60848;53.884;11.446;2022-11-15T09:18:06;12.80;65.90
28905;DHT22;60848;53.884;11.446;2022-11-15T09:20:55;12.80;65.80
28905;DHT22;60848;53.884;11.446;2022-11-15T09:23:43;12.90;65.90
28905;DHT22;60848;53.884;11.446;2022-11-15T09:26:30;12.90;65.90
28905;DHT22;60848;53.884;11.446;2022-11-15T09:29:17;12.90;65.60
28905;DHT22;60848;53.884;11.446;2022-11-15T09:32:05;13.00;65.60
28905;DHT22;60848;53.884;11.446;2022-11-15T09:34:54;13.00;65.70
28905;DHT22;60848;53.884;11.446;2022-11-15T09:37:40;13.10;65.70
28905;DHT22;60848;53.884;11.446;2022-11-15T09:40:29;13.20;65.70
28905;DHT22;60848;53.884;11.446;2022-11-15T09:43:36;13.30;65.50
28905;DHT22;60848;53.884;11.446;2022-11-15T09:46:34;13.40;65.30
28905;DHT22;60848;53.884;11.446;2022-11-15T09:49:23;13.40;65.10
28905;DHT22;60848;53.884;11.446;2022-11-15T09:52:10;13.40;65.10
28905;DHT22;60848;53.884;11.446;2022-11-15T09:54:39;13.50;65.00
28905;DHT22;60848;53.884;11.446;2022-11-15T09:57:33;13.60;65.10
28905;DHT22;60848;53.884;11.446;2022-11-15T10:00:15;13.70;64.70
28905;DHT22;60848;53.884;11.446;2022-11-15T10:03:11;13.70;64.80
28905;DHT22;60848;53.884;11.446;2022-11-15T10:05:41;13.80;64.80
28905;DHT22;60848;53.884;11.446;2022-11-15T10:08:22;13.90;64.70
28905;DHT22;60848;53.884;11.446;2022-11-15T10:10:53;14.00;64.60
28905;DHT22;60848;53.884;11.446;2022-11-15T10:13:45;14.10;64.50
28905;DHT22;60848;53.884;11.446;2022-11-15T10:16:21;14.10;64.30
28905;DHT22;60848;53.884;11.446;2022-11-15T10:18:58;14.20;64.30
28905;DHT22;60848;53.884;11.446;2022-11-15T10:21:39;14.20;64.20
28905;DHT22;60848;53.884;11.446;2022-11-15T10:24:16;14.20;64.30
28905;DHT22;60848;53.884;11.446;2022-11-15T10:26:46;14.30;64.70
28905;DHT22;60848;53.884;11.446;2022-11-15T10:29:17;14.40;64.90
28905;DHT22;60848;53.884;11.446;2022-11-15T10:31:52;14.40;64.50
28905;DHT22;60848;53.884;11.446;2022-11-15T10:34:21;14.50;64.30
28905;DHT22;60848;53.884;11.446;2022-11-15T10:36:54;14.50;64.10
28905;DHT22;60848;53.884;11.446;2022-11-15T10:39:24;14.60;64.10
28905;DHT22;60848;53.884;11.446;2022-11-15T10:41:54;14.70;64.00
28905;DHT22;60848;53.884;11.446;2022-11-15T10:44:25;14.80;63.80
28905;DHT22;60848;53.884;11.446;2022-11-15T10:47:04;14.80;63.80
28905;DHT22;60848;53.884;11.446;2022-11-15T10:49:33;14.90;63.70
28905;DHT22;60848;53.884;11.446;2022-11-15T10:52:04;14.90;63.60
28905;DHT22;60848;53.884;11.446;2022-11-15T10:54:42;15.00;63.40
28905;DHT22;60848;53.884;11.446;2022-11-15T10:57:12;15.00;63.30
28905;DHT22;60848;53.884;11.446;2022-11-15T10:59:42;15.00;63.20
28905;DHT22;60848;53.884;11.446;2022-11-15T11:02:24;15.00;63.30
28905;DHT22;60848;53.884;11.446;2022-11-15T11:04:55;15.10;63.40
28905;DHT22;60848;53.884;11.446;2022-11-15T11:07:25;15.10;63.20
28905;DHT22;60848;53.884;11.446;2022-11-15T11:10:01;15.20;63.30
28905;DHT22;60848;53.884;11.446;2022-11-15T11:12:48;15.20;63.20
28905;DHT22;60848;53.884;11.446;2022-11-15T11:15:17;15.30;63.00
28905;DHT22;60848;53.884;11.446;2022-11-15T11:17:55;15.20;63.00
28905;DHT22;60848;53.884;11.446;2022-11-15T11:20:30;15.30;63.00
28905;DHT22;60848;53.884;11.446;2022-11-15T11:23:06;15.30;62.90
28905;DHT22;60848;53.884;11.446;2022-11-15T11:25:50;15.20;62.90
28905;DHT22;60848;53.884;11.446;2022-11-15T11:28:26;15.30;63.00
28905;DHT22;60848;53.884;11.446;2022-11-15T11:31:00;15.40;62.90
28905;DHT22;60848;53.884;11.446;2022-11-15T11:33:33;15.50;62.60
28905;DHT22;60848;53.884;11.446;2022-11-15T11:36:05;15.60;62.50
28905;DHT22;60848;53.884;11.446;2022-11-15T11:38:41;15.70;62.30
28905;DHT22;60848;53.884;11.446;2022-11-15T11:41:19;15.80;62.20
28905;DHT22;60848;53.884;11.446;2022-11-15T11:43:50;15.90;62.00
28905;DHT22;60848;53.884;11.446;2022-11-15T11:46:30;15.90;61.80
28905;DHT22;60848;53.884;11.446;2022-11-15T11:49:08;15.90;61.90
28905;DHT22;60848;53.884;11.446;2022-11-15T11:51:38;16.00;61.70
28905;DHT22;60848;53.884;11.446;2022-11-15T11:54:11;16.10;61.60
28905;DHT22;60848;53.884;11.446;2022-11-15T11:56:44;16.10;61.50
28905;DHT22;60848;53.884;11.446;2022-11-15T11:59:16;16.20;61.50
28905;DHT22;60848;53.884;11.446;2022-11-15T12:01:46;16.20;61.40
28905;DHT22;60848;53.884;11.446;2022-11-15T12:04:16;16.20;61.40
28905;DHT22;60848;53.884;11.446;2022-11-15T12:06:47;16.30;61.20
28905;DHT22;60848;53.884;11.446;2022-11-15T12:09:21;16.30;61.30
28905;DHT22;60848;53.884;11.446;2022-11-15T12:11:54;16.30;61.10
28905;DHT22;60848;53.884;11.446;2022-11-15T12:14:31;16.30;61.20
28905;DHT22;60848;53.884;11.446;2022-11-15T12:17:00;16.30;61.20
28905;DHT22;60848;53.884;11.446;2022-11-15T12:19:29;16.40;61.40
28905;DHT22;60848;53.884;11.446;2022-11-15T12:22:00;16.50;61.30
28905;DHT22;60848;53.884;11.446;2022-11-15T12:24:32;16.50;61.20
28905;DHT22;60848;53.884;11.446;2022-11-15T12:27:05;16.60;61.30
28905;DHT22;60848;53.884;11.446;2022-11-15T12:29:37;16.70;61.10
28905;DHT22;60848;53.884;11.446;2022-11-15T12:32:13;16.70;60.80
28905;DHT22;60848;53.884;11.446;2022-11-15T12:34:45;16.60;60.90
28905;DHT22;60848;53.884;11.446;2022-11-15T12:40:14;16.50;61.00
28905;DHT22;60848;53.884;11.446;2022-11-15T12:43:02;16.50;61.20
28905;DHT22;60848;53.884;11.446;2022-11-15T12:45:31;16.60;61.10
28905;DHT22;60848;53.884;11.446;2022-11-15T12:50:53;16.70;60.80
28905;DHT22;60848;53.884;11.446;2022-11-15T12:53:28;16.80;60.90
28905;DHT22;60848;53.884;11.446;2022-11-15T12:58:56;16.60;61.30
28905;DHT22;60848;53.884;11.446;2022-11-15T13:04:13;16.70;61.40
28905;DHT22;60848;53.884;11.446;2022-11-15T13:06:43;16.80;61.00
28905;DHT22;60848;53.884;11.446;2022-11-15T13:09:53;16.80;60.90
28905;DHT22;60848;53.884;11.446;2022-11-15T13:12:49;16.90;61.00
28905;DHT22;60848;53.884;11.446;2022-11-15T13:15:53;16.90;60.90
28905;DHT22;60848;53.884;11.446;2022-11-15T13:18:27;17.10;60.80
28905;DHT22;60848;53.884;11.446;2022-11-15T13:20:57;17.20;60.10
28905;DHT22;60848;53.884;11.446;2022-11-15T13:23:28;17.10;59.90
28905;DHT22;60848;53.884;11.446;2022-11-15T13:26:08;17.10;60.00
28905;DHT22;60848;53.884;11.446;2022-11-15T13:28:41;17.10;60.00
28905;DHT22;60848;53.884;11.446;2022-11-15T13:31:18;17.20;59.90
28905;DHT22;60848;53.884;11.446;2022-11-15T13:33:50;17.10;59.90
28905;DHT22;60848;53.884;11.446;2022-11-15T13:36:19;17.10;59.80
28905;DHT22;60848;53.884;11.446;2022-11-15T13:38:55;17.00;59.90
28905;DHT22;60848;53.884;11.446;2022-11-15T13:41:26;17.00;60.00
28905;DHT22;60848;53.884;11.446;2022-11-15T13:43:57;17.00;60.00
28905;DHT22;60848;53.884;11.446;2022-11-15T13:46:27;17.00;60.60
28905;DHT22;60848;53.884;11.446;2022-11-15T13:48:56;17.10;59.90
28905;DHT22;60848;53.884;11.446;2022-11-15T13:51:30;17.10;59.80
28905;DHT22;60848;53.884;11.446;2022-11-15T13:54:00;17.10;59.90
28905;DHT22;60848;53.884;11.446;2022-11-15T13:56:29;17.00;59.90
28905;DHT22;60848;53.884;11.446;2022-11-15T13:59:00;17.00;60.00
28905;DHT22;60848;53.884;11.446;2022-11-15T14:01:30;16.90;60.10
28905;DHT22;60848;53.884;11.446;2022-11-15T14:03:59;16.80;60.30
28905;DHT22;60848;53.884;11.446;2022-11-15T14:06:28;16.80;60.60
28905;DHT22;60848;53.884;11.446;2022-11-15T14:08:58;16.80;60.50
28905;DHT22;60848;53.884;11.446;2022-11-15T14:11:27;16.80;60.60
28905;DHT22;60848;53.884;11.446;2022-11-15T14:14:01;16.80;60.50
28905;DHT22;60848;53.884;11.446;2022-11-15T14:16:33;16.90;60.40
28905;DHT22;60848;53.884;11.446;2022-11-15T14:19:03;16.90;60.40
28905;DHT22;60848;53.884;11.446;2022-11-15T14:21:31;16.80;60.30
28905;DHT22;60848;53.884;11.446;2022-11-15T14:24:15;16.80;60.50
28905;DHT22;60848;53.884;11.446;2022-11-15T14:26:44;16.70;60.60
28905;DHT22;60848;53.884;11.446;2022-11-15T14:29:22;16.60;60.80
28905;DHT22;60848;53.884;11.446;2022-11-15T14:31:51;16.60;60.80
28905;DHT22;60848;53.884;11.446;2022-11-15T14:34:20;16.50;60.80
28905;DHT22;60848;53.884;11.446;2022-11-15T14:36:49;16.40;60.90
28905;DHT22;60848;53.884;11.446;2022-11-15T14:39:17;16.10;62.10
28905;DHT22;60848;53.884;11.446;2022-11-15T14:41:48;16.10;61.90
28905;DHT22;60848;53.884;11.446;2022-11-15T14:44:16;16.20;61.70
28905;DHT22;60848;53.884;11.446;2022-11-15T14:46:46;16.20;61.60
28905;DHT22;60848;53.884;11.446;2022-11-15T14:49:16;16.10;61.60
28905;DHT22;60848;53.884;11.446;2022-11-15T14:51:44;16.10;61.70
28905;DHT22;60848;53.884;11.446;2022-11-15T14:54:13;16.10;61.90
28905;DHT22;60848;53.884;11.446;2022-11-15T14:56:41;16.10;61.70
28905;DHT22;60848;53.884;11.446;2022-11-15T14:59:12;16.10;61.60
28905;DHT22;60848;53.884;11.446;2022-11-15T15:01:42;16.10;61.50
28905;DHT22;60848;53.884;11.446;2022-11-15T15:04:11;16.10;61.60
28905;DHT22;60848;53.884;11.446;2022-11-15T18:21:04;13.40;67.90
28905;DHT22;60848;53.884;11.446;2022-11-15T18:23:33;13.50;67.70
28905;DHT22;60848;53.884;11.446;2022-11-15T18:26:02;13.50;67.40
28905;DHT22;60848;53.884;11.446;2022-11-15T18:28:32;13.60;67.30
28905;DHT22;60848;53.884;11.446;2022-11-15T18:31:05;13.40;67.50
28905;DHT22;60848;53.884;11.446;2022-11-15T18:33:39;13.40;67.70
28905;DHT22;60848;53.884;11.446;2022-11-15T18:36:11;13.40;67.60
28905;DHT22;60848;53.884;11.446;2022-11-15T18:38:39;13.40;67.50
28905;DHT22;60848;53.884;11.446;2022-11-15T18:41:08;13.30;67.70
28905;DHT22;60848;53.884;11.446;2022-11-15T18:43:37;13.30;67.80
28905;DHT22;60848;53.884;11.446;2022-11-15T18:46:06;13.30;67.70
28905;DHT22;60848;53.884;11.446;2022-11-15T18:48:35;13.20;68.00
28905;DHT22;60848;53.884;11.446;2022-11-15T18:51:06;13.10;68.30
28905;DHT22;60848;53.884;11.446;2022-11-15T18:53:36;13.00;68.70
28905;DHT22;60848;53.884;11.446;2022-11-15T18:56:05;13.10;68.30
28905;DHT22;60848;53.884;11.446;2022-11-15T18:58:36;13.00;68.10
28905;DHT22;60848;53.884;11.446;2022-11-15T19:01:05;13.00;68.70
28905;DHT22;60848;53.884;11.446;2022-11-15T19:03:34;12.80;69.20
28905;DHT22;60848;53.884;11.446;2022-11-15T19:06:03;12.90;69.00
28905;DHT22;60848;53.884;11.446;2022-11-15T19:08:32;12.90;68.30
28905;DHT22;60848;53.884;11.446;2022-11-15T19:11:03;13.00;68.10
28905;DHT22;60848;53.884;11.446;2022-11-15T19:13:31;12.90;68.10
28905;DHT22;60848;53.884;11.446;2022-11-15T19:16:00;12.80;68.80
28905;DHT22;60848;53.884;11.446;2022-11-15T19:18:29;12.80;68.50
28905;DHT22;60848;53.884;11.446;2022-11-15T19:21:01;12.60;69.00
28905;DHT22;60848;53.884;11.446;2022-11-15T19:23:32;12.50;69.50
28905;DHT22;60848;53.884;11.446;2022-11-15T19:26:08;12.60;69.00
28905;DHT22;60848;53.884;11.446;2022-11-15T19:28:37;12.70;68.70
28905;DHT22;60848;53.884;11.446;2022-11-15T19:31:09;12.90;68.30
28905;DHT22;60848;53.884;11.446;2022-11-15T19:33:37;12.90;68.00
28905;DHT22;60848;53.884;11.446;2022-11-15T19:36:09;12.90;69.10
28905;DHT22;60848;53.884;11.446;2022-11-15T19:38:38;12.90;68.60
28905;DHT22;60848;53.884;11.446;2022-11-15T19:41:10;12.70;68.70
28905;DHT22;60848;53.884;11.446;2022-11-15T19:43:39;12.80;68.40
28905;DHT22;60848;53.884;11.446;2022-11-15T19:46:10;12.50;68.50
28905;DHT22;60848;53.884;11.446;2022-11-15T19:48:39;12.30;69.00
28905;DHT22;60848;53.884;11.446;2022-11-15T19:51:10;12.20;70.10
28905;DHT22;60848;53.884;11.446;2022-11-15T19:53:39;12.50;69.20
28905;DHT22;60848;53.884;11.446;2022-11-15T19:56:13;12.10;69.70
28905;DHT22;60848;53.884;11.446;2022-11-15T19:58:44;12.40;69.30
28905;DHT22;60848;53.884;11.446;2022-11-15T20:01:16;12.40;69.20
28905;DHT22;60848;53.884;11.446;2022-11-15T20:03:45;12.40;69.00
28905;DHT22;60848;53.884;11.446;2022-11-15T20:06:15;12.40;68.60
28905;DHT22;60848;53.884;11.446;2022-11-15T20:08:45;12.40;68.90
28905;DHT22;60848;53.884;11.446;2022-11-15T20:11:15;12.50;68.60
28905;DHT22;60848;53.884;11.446;2022-11-15T20:13:44;12.40;69.00
28905;DHT22;60848;53.884;11.446;2022-11-15T20:16:15;12.50;68.60
28905;DHT22;60848;53.884;11.446;2022-11-15T20:18:44;12.30;68.80